• Join FlightAware (Why Join?)
  • Login
  • US Flag 
05:30PM EDT


 

Airport Tracker/Info


-or-


 

Live Flight TrackerFlight Track Log ✈ N534QS ✈ 26-Oct-2013 ✈ KHPN - LFPB / LBG

Flight Track Log - Related Links

Times and Time Zones

All times are in EDT time to prevent confusion due to time zone crossing. See the N534QS flight status page for this flight to view local times or setup timezone preferences in your user account.

Time Position Orientation Groundspeed Altitude Reporting Facility
EDT Latitude Longitude Course Direction KTS MPH feet Rate Location/Type
07:59AM 41.1000 -73.7333 290° West 185 213 2,400  Level New York TRACON
08:01AM 41.1392 -73.8767 290° West 248 285 8,200 2,760 Climbing Boston Center
08:02AM 41.2164 -73.8428 18° North 312 359 11,100 1,980 Climbing Boston Center
08:03AM 41.2625 -73.7131 65° Northeast 398 458 12,200 1,800 Climbing Boston Center
08:04AM 41.3039 -73.5681 69° East 419 482 14,800 2,640 Climbing Boston Center
08:05AM 41.3544 -73.4208 65° Northeast 436 502 17,600 2,280 Climbing Boston Center
08:06AM 41.4003 -73.2842 66° East 451 519 19,400 2,040 Climbing Boston Center
08:07AM 41.4531 -73.1233 66° East 467 537 21,800 1,980 Climbing Boston Center
08:08AM 41.5064 -72.9569 67° East 482 555 23,600 2,100 Climbing Boston Center
08:09AM 41.5406 -72.7489 78° East 518 596 26,100 2,160 Climbing Boston Center
08:10AM 41.5669 -72.5539 80° East 536 617 28,000 1,860 Climbing Boston Center
08:11AM 41.5928 -72.3575 80° East 541 623 29,900 2,040 Climbing Boston Center
08:12AM 41.6192 -72.1658 80° East 531 611 32,200 2,160 Climbing Boston Center
08:13AM 41.6444 -71.9725 80° East 530 610 34,200 1,860 Climbing Boston Center
08:14AM 41.6700 -71.7792 80° East 531 611 36,000 1,440 Climbing Boston Center
08:15AM 41.7014 -71.5514 79° East 544 626 37,200 1,440 Climbing Boston Center
08:16AM 41.7250 -71.3553 81° East 539 620 39,000 1,320 Climbing Boston Center
08:17AM 41.7500 -71.1569 80° East 540 621 39,900 960 Climbing Boston Center
08:18AM 41.7756 -70.9592 80° East 541 623 41,000 540 Climbing Boston Center
08:19AM 41.8006 -70.7589 80° East 544 626 41,000 -60 Level Boston Center
08:20AM 41.8250 -70.5606 81° East 544 626 40,900  Descending Boston Center
08:21AM 41.8494 -70.3522 81° East 544 626 41,000  Climbing Boston Center
08:22AM 41.8733 -70.1536 81° East 544 626 41,000  Level Boston Center
08:23AM 41.8961 -69.9500 81° East 554 638 41,000  Level Boston Center
08:24AM 41.9194 -69.7519 81° East 556 640 41,000  Level Boston Center
08:25AM 41.9422 -69.5469 81° East 556 640 41,000  Level Boston Center
08:26AM 41.9647 -69.3433 81° East 555 639 41,000  Level Boston Center
08:27AM 41.9867 -69.1386 82° East 554 638 41,000  Level Boston Center
08:28AM 42.0133 -68.9119 81° East 554 638 41,000  Level Boston Center
08:29AM 42.0344 -68.7081 82° East 555 639 41,000  Level Boston Center
08:30AM 42.0558 -68.5042 82° East 552 635 41,000  Level Boston Center
08:31AM 42.0769 -68.2972 82° East 558 642 41,000  Level Boston Center
08:32AM 42.0969 -68.0892 83° East 561 646 41,000  Level Boston Center
08:33AM 42.1172 -67.8769 83° East 562 647 41,000  Level Boston Center
08:34AM 42.1383 -67.6714 82° East 559 643 41,000  Level Boston Center
08:35AM 42.1569 -67.4644 83° East 559 643 41,000  Level Boston Center
08:36AM 42.1758 -67.2539 83° East 564 649 41,000  Level Boston Center
08:38AM 42.1833 -66.9667 88° East 560 644 41,000  Level Moncton Center
08:39AM 42.2500 -66.7833 64° Northeast 540 621 41,000  Level Moncton Center
08:40AM 42.3167 -66.5833 66° East 540 621 41,000  Level Moncton Center
08:41AM 42.3667 -66.3833 71° East 550 633 41,000  Level Moncton Center
08:42AM 42.4167 -66.2000 70° East 550 633 41,000  Level Moncton Center
08:43AM 42.4833 -66.0333 61° Northeast 540 621 41,000  Level Moncton Center
08:44AM 42.5333 -65.8167 73° East 540 621 41,000  Level Moncton Center
08:45AM 42.6000 -65.6500 61° Northeast 550 633 41,000  Level Moncton Center
08:46AM 42.6667 -65.4333 67° East 550 633 41,000  Level Moncton Center
08:47AM 42.7167 -65.2667 68° East 550 633 41,000  Level Moncton Center
08:48AM 42.7667 -65.0500 72° East 550 633 41,000  Level Moncton Center
08:49AM 42.8167 -64.8833 68° East 550 633 41,000  Level Moncton Center
08:50AM 42.8833 -64.6667 67° East 560 644 41,000  Level Moncton Center
08:51AM 42.9333 -64.4667 71° East 560 644 41,000  Level Moncton Center
08:52AM 42.9833 -64.2833 69° East 560 644 41,000  Level Moncton Center
08:53AM 43.0500 -64.0833 65° Northeast 560 644 41,000  Level Moncton Center
08:54AM 43.1000 -63.8667 72° East 560 644 41,000  Level Moncton Center
08:55AM 43.1667 -63.6833 63° Northeast 550 633 41,000  Level Moncton Center
08:56AM 43.2167 -63.4500 74° East 560 644 41,000  Level Moncton Center
08:57AM 43.2667 -63.2667 69° East 560 644 41,000  Level Moncton Center
08:58AM 43.3333 -63.0667 65° Northeast 570 656 41,000  Level Moncton Center
08:59AM 43.3667 -62.8500 78° East 570 656 41,000  Level Moncton Center
09:00AM 43.4167 -62.6667 69° East 570 656 41,000  Level Moncton Center
09:01AM 43.4833 -62.4667 65° Northeast 560 644 41,000  Level Moncton Center
09:02AM 43.5333 -62.2500 72° East 570 656 41,000  Level Moncton Center
09:03AM 43.6000 -62.0500 65° Northeast 570 656 41,000  Level Moncton Center
09:03AM 43.6333 -61.8833 74° East 570 656 41,000  Level Gander Center
09:04AM 43.7000 -61.6667 67° East 570 656 41,000  Level Gander Center
09:05AM 43.7500 -61.4667 71° East 570 656 41,000  Level Gander Center
09:06AM 43.8000 -61.2667 71° East 570 656 41,000  Level Gander Center
09:07AM 43.8500 -61.0500 72° East 560 644 41,000  Level Gander Center
09:08AM 43.9000 -60.8500 71° East 560 644 41,000  Level Gander Center
09:09AM 43.9500 -60.6333 72° East 570 656 41,000  Level Gander Center
09:10AM 43.9833 -60.4500 76° East 560 644 41,000  Level Gander Center
09:11AM 44.0333 -60.2333 72° East 570 656 41,000  Level Gander Center
09:12AM 44.0833 -60.0333 71° East 570 656 41,000  Level Gander Center
09:13AM 44.1333 -59.8167 72° East 570 656 41,000  Level Gander Center
09:14AM 44.1833 -59.6167 71° East 570 656 41,000  Level Gander Center
09:15AM 44.2333 -59.4000 72° East 570 656 41,000  Level Gander Center
09:16AM 44.2667 -59.1833 78° East 560 644 41,000  Level Gander Center
09:17AM 44.3333 -58.9833 65° Northeast 570 656 41,000  Level Gander Center
09:18AM 44.3833 -58.7667 72° East 580 667 41,000  Level Gander Center
09:19AM 44.4333 -58.5500 72° East 570 656 41,000  Level Gander Center
09:20AM 44.4667 -58.3333 78° East 570 656 41,000  Level Gander Center
09:21AM 44.5167 -58.1333 71° East 570 656 41,000  Level Gander Center
09:22AM 44.5500 -57.9167 78° East 580 667 41,000  Level Gander Center
09:23AM 44.6000 -57.7000 72° East 590 679 41,000  Level Gander Center
09:24AM 44.6667 -57.4667 68° East 580 667 41,000  Level Gander Center
09:25AM 44.7000 -57.2500 78° East 590 679 41,000  Level Gander Center
09:26AM 44.7500 -57.0333 72° East 590 679 41,000  Level Gander Center
09:27AM 44.7833 -56.8167 78° East 580 667 41,000  Level Gander Center
09:28AM 44.8333 -56.5833 73° East 590 679 41,000  Level Gander Center
09:29AM 44.8833 -56.3667 72° East 590 679 41,000  Level Gander Center
09:30AM 44.9167 -56.1500 78° East 580 667 41,000  Level Gander Center
09:31AM 44.9667 -55.9333 72° East 580 667 41,000  Level Gander Center
09:32AM 45.0000 -55.7000 78° East 590 679 41,000  Level Gander Center
09:33AM 45.0500 -55.5000 70° East 600 690 41,000  Level Gander Center
09:34AM 45.1000 -55.2500 74° East 590 679 41,000  Level Gander Center
09:35AM 45.1333 -55.0333 78° East 590 679 41,000  Level Gander Center
09:36AM 45.1833 -54.8167 72° East 580 667 41,000  Level Gander Center
09:37AM 45.2167 -54.5833 78° East 590 679 41,000  Level Gander Center
09:38AM 45.2500 -54.3667 78° East 590 679 41,000  Level Gander Center
09:39AM 45.3167 -54.1333 68° East 580 667 41,000  Level Gander Center
09:40AM 45.3500 -53.9167 78° East 580 667 41,000  Level Gander Center
09:41AM 45.3833 -53.6833 78° East 580 667 41,000  Level Gander Center
09:42AM 45.4333 -53.4833 70° East 590 679 41,000  Level Gander Center
09:43AM 45.4667 -53.2667 78° East 580 667 41,000  Level Gander Center
09:44AM 45.5000 -53.0167 79° East 580 667 41,000  Level Gander Center
09:45AM 45.5333 -52.8000 78° East 590 679 41,000  Level Gander Center
09:46AM 45.5833 -52.5667 73° East 580 667 41,000  Level Gander Center
09:47AM 45.6167 -52.3500 78° East 580 667 41,000  Level Gander Center
09:48AM 45.6500 -52.1000 79° East 590 679 41,000  Level Gander Center
09:49AM 45.6833 -51.8833 78° East 590 679 41,000  Level Gander Center
09:50AM 45.7167 -51.6667 77° East 590 679 41,000  Level Gander Center
09:51AM 45.7667 -51.4333 73° East 590 679 41,000  Level Gander Center
09:52AM 45.8000 -51.2167 77° East 600 690 41,000  Level Gander Center
09:53AM 45.8167 -50.9667 84° East 590 679 41,000  Level Gander Center
09:54AM 45.8667 -50.7500 72° East 590 679 41,000  Level Gander Center
09:55AM 45.9000 -50.5167 78° East 590 679 41,000  Level Gander Center
09:56AM 45.9333 -50.3000 77° East 600 690 41,000  Level Gander Center
09:57AM 45.9667 -50.0500 79° East 590 679 41,000  Level Gander Center
09:58AM 46.0167 -49.8167 73° East 600 690 41,000  Level Gander Center
09:59AM 46.0667 -49.5833 73° East 620 713 41,000  Level Gander Center
10:00AM 46.1333 -49.3500 70° East 600 690 41,000  Level Gander Center
10:01AM 46.0000 -50.0000 70° East 581 669 41,000  Level ETMS Enhanced Traffic Management System
10:01AM 46.1667 -49.1500 76° East 610 702 41,000  Level Gander Center
10:02AM 46.2333 -48.9167 67° East 590 679 41,000  Level Gander Center
10:03AM 46.2833 -48.6833 73° East 600 690 41,000  Level Gander Center
10:04AM 46.3500 -48.4500 67° East 600 690 41,000  Level Gander Center
10:05AM 46.3833 -48.2333 77° East 600 690 41,000  Level Gander Center
10:06AM 46.4500 -48.0167 66° East 600 690 41,000  Level Gander Center
10:07AM 46.5000 -47.7833 73° East 600 690 41,000  Level Gander Center
10:08AM 46.5500 -47.5500 73° East 600 690 41,000  Level Gander Center
10:09AM 46.6167 -47.3167 67° East 610 702 41,000  Level Gander Center
10:10AM 46.6500 -47.0833 78° East 610 702 41,000 120 Level Gander Center
10:13AM 46.7221 -46.7643 72° East  Level FlightAware Approximate
10:20AM 47.0431 -45.2809 72° East  Level FlightAware Approximate
10:21AM 47.0874 -45.0676 73° East  Level FlightAware Approximate
10:22AM 47.1313 -44.8539 73° East  Level FlightAware Approximate
10:23AM 47.1748 -44.6398 73° East  Level FlightAware Approximate
10:24AM 47.2179 -44.4254 73° East  Level FlightAware Approximate
10:25AM 47.2606 -44.2107 74° East  Level FlightAware Approximate
10:26AM 47.3029 -43.9956 74° East  Level FlightAware Approximate
10:27AM 47.3448 -43.7801 74° East  Level FlightAware Approximate
10:28AM 47.3863 -43.5637 74° East  Level FlightAware Approximate
10:29AM 47.4271 -43.3475 74° East  Level FlightAware Approximate
10:30AM 47.4675 -43.1310 74° East  Level FlightAware Approximate
10:31AM 47.5075 -42.9141 75° East  Level FlightAware Approximate
10:32AM 47.5471 -42.6968 75° East  Level FlightAware Approximate
10:33AM 47.5863 -42.4793 75° East  Level FlightAware Approximate
10:34AM 47.6250 -42.2614 75° East  Level FlightAware Approximate
10:35AM 47.6634 -42.0432 75° East  Level FlightAware Approximate
10:36AM 47.7013 -41.8247 75° East  Level FlightAware Approximate
10:37AM 47.7389 -41.6059 76° East  Level FlightAware Approximate
10:38AM 47.7760 -41.3867 76° East  Level FlightAware Approximate
10:39AM 47.8127 -41.1673 76° East  Level FlightAware Approximate
10:40AM 47.8489 -40.9475 76° East  Level FlightAware Approximate
10:41AM 47.8848 -40.7275 76° East  Level FlightAware Approximate
10:42AM 47.9202 -40.5071 76° East  Level FlightAware Approximate
10:42AM 48.0000 -40.0000 78° East 602 693 45,000  Level ETMS Enhanced Traffic Management System
10:43AM 47.9552 -40.2864 77° East  Level FlightAware Approximate
10:44AM 47.9898 -40.0655 77° East  Level FlightAware Approximate
10:45AM 48.0224 -39.8437 78° East  Level FlightAware Approximate
10:46AM 48.0540 -39.6214 78° East  Level FlightAware Approximate
10:47AM 48.0851 -39.3988 78° East  Level FlightAware Approximate
10:48AM 48.2688 -38.0341 79° East 602 693 45,000  Level FlightAware Transoceanic
10:49AM 48.3000 -37.7869 79° East 602 693 45,000  Level FlightAware Transoceanic
10:50AM 48.3307 -37.5395 80° East 602 693 45,000  Level FlightAware Transoceanic
10:51AM 48.3609 -37.2917 80° East 602 693 45,000  Level FlightAware Transoceanic
10:52AM 48.3906 -37.0437 80° East 602 693 45,000  Level FlightAware Transoceanic
10:53AM 48.4197 -36.7954 80° East 602 693 45,000  Level FlightAware Transoceanic
10:54AM 48.4482 -36.5468 80° East 602 693 45,000  Level FlightAware Transoceanic
10:55AM 48.4763 -36.2979 80° East 602 693 45,000  Level FlightAware Transoceanic
10:56AM 48.5038 -36.0487 81° East 602 693 45,000  Level FlightAware Transoceanic
10:57AM 48.5307 -35.7993 81° East 602 693 45,000  Level FlightAware Transoceanic
10:58AM 48.5572 -35.5496 81° East 602 693 45,000  Level FlightAware Transoceanic
10:59AM 48.5830 -35.2996 81° East 602 693 45,000  Level FlightAware Transoceanic
11:00AM 48.6084 -35.0494 81° East 602 693 45,000  Level FlightAware Transoceanic
11:01AM 48.6332 -34.7990 82° East 602 693 45,000  Level FlightAware Transoceanic
11:02AM 48.6574 -34.5483 82° East 602 693 45,000  Level FlightAware Transoceanic
11:03AM 48.6811 -34.2974 82° East 602 693 45,000  Level FlightAware Transoceanic
11:04AM 48.7043 -34.0462 82° East 602 693 45,000  Level FlightAware Transoceanic
11:05AM 48.7269 -33.7948 82° East 602 693 45,000  Level FlightAware Transoceanic
11:06AM 48.7490 -33.5432 83° East 602 693 45,000  Level FlightAware Transoceanic
11:07AM 48.7705 -33.2914 83° East 602 693 45,000  Level FlightAware Transoceanic
11:08AM 48.7915 -33.0393 83° East 602 693 45,000  Level FlightAware Transoceanic
11:09AM 48.8119 -32.7870 83° East 602 693 45,000  Level FlightAware Transoceanic
11:10AM 48.8318 -32.5346 83° East 602 693 45,000  Level FlightAware Transoceanic
11:11AM 48.8511 -32.2819 83° East 602 693 45,000  Level FlightAware Transoceanic
11:12AM 48.8699 -32.0291 84° East 602 693 45,000  Level FlightAware Transoceanic
11:13AM 48.8881 -31.7760 84° East 602 693 45,000  Level FlightAware Transoceanic
11:14AM 48.9057 -31.5228 84° East 602 693 45,000  Level FlightAware Transoceanic
11:15AM 48.9228 -31.2694 84° East 602 693 45,000  Level FlightAware Transoceanic
11:16AM 48.9394 -31.0159 84° East 602 693 45,000  Level FlightAware Transoceanic
11:17AM 48.9554 -30.7621 85° East 602 693 45,000  Level FlightAware Transoceanic
11:18AM 48.9708 -30.5082 85° East 602 693 45,000  Level FlightAware Transoceanic
11:19AM 48.9857 -30.2542 85° East 602 693 45,000  Level FlightAware Transoceanic
11:20AM 48.9987 -30.0235 85° East  Level FlightAware Approximate
11:21AM 49.0113 -29.7927 85° East  Level FlightAware Approximate
11:22AM 49.0078 -29.8160 86° East  Level FlightAware Approximate
11:22AM 49.0000 -30.0000 86° East 590 679 45,000  Level ETMS Enhanced Traffic Management System
11:23AM 49.0172 -29.5848 86° East  Level FlightAware Approximate
11:24AM 49.0262 -29.3535 87° East  Level FlightAware Approximate
11:25AM 49.0347 -29.1222 87° East  Level FlightAware Approximate
11:26AM 49.0427 -28.8907 87° East  Level FlightAware Approximate
11:27AM 49.0503 -28.6592 87° East  Level FlightAware Approximate
11:28AM 49.0624 -28.2527 88° East 590 679 45,000  Level FlightAware Transoceanic
11:29AM 49.0692 -28.0028 88° East 590 679 45,000  Level FlightAware Transoceanic
11:30AM 49.0754 -27.7528 88° East 590 679 45,000  Level FlightAware Transoceanic
11:31AM 49.0811 -27.5027 88° East 590 679 45,000  Level FlightAware Transoceanic
11:32AM 49.0862 -27.2526 88° East 590 679 45,000  Level FlightAware Transoceanic
11:33AM 49.0908 -27.0024 88° East 590 679 45,000  Level FlightAware Transoceanic
11:34AM 49.0949 -26.7522 89° East 590 679 45,000  Level FlightAware Transoceanic
11:35AM 49.0984 -26.5020 89° East 590 679 45,000  Level FlightAware Transoceanic
11:36AM 49.1014 -26.2517 89° East 590 679 45,000  Level FlightAware Transoceanic
11:37AM 49.1038 -26.0014 89° East 590 679 45,000  Level FlightAware Transoceanic
11:38AM 49.1057 -25.7511 89° East 590 679 45,000  Level FlightAware Transoceanic
11:39AM 49.1071 -25.5007 90° East 590 679 45,000  Level FlightAware Transoceanic
11:40AM 49.1079 -25.2504 90° East 590 679 45,000  Level FlightAware Transoceanic
11:41AM 49.1081 -25.0000 90° East 590 679 45,000  Level FlightAware Transoceanic
11:42AM 49.1079 -24.7496 90° East 590 679 45,000  Level FlightAware Transoceanic
11:43AM 49.1071 -24.4993 90° East 590 679 45,000  Level FlightAware Transoceanic
11:44AM 49.1057 -24.2489 91° East 590 679 45,000  Level FlightAware Transoceanic
11:45AM 49.1038 -23.9986 91° East 590 679 45,000  Level FlightAware Transoceanic
11:46AM 49.1014 -23.7483 91° East 590 679 45,000  Level FlightAware Transoceanic
11:47AM 49.0984 -23.4980 91° East 590 679 45,000  Level FlightAware Transoceanic
11:48AM 49.0949 -23.2478 91° East 590 679 45,000  Level FlightAware Transoceanic
11:49AM 49.0908 -22.9976 92° East 590 679 45,000  Level FlightAware Transoceanic
11:50AM 49.0862 -22.7474 92° East 590 679 45,000  Level FlightAware Transoceanic
11:51AM 49.0811 -22.4973 92° East 590 679 45,000  Level FlightAware Transoceanic
11:52AM 49.0754 -22.2472 92° East 590 679 45,000  Level FlightAware Transoceanic
11:53AM 49.0692 -21.9972 92° East 590 679 45,000  Level FlightAware Transoceanic
11:54AM 49.0624 -21.7473 92° East 590 679 45,000  Level FlightAware Transoceanic
11:55AM 49.0551 -21.4974 93° East 590 679 45,000  Level FlightAware Transoceanic
11:56AM 49.0473 -21.2476 93° East 590 679 45,000  Level FlightAware Transoceanic
11:57AM 49.0389 -20.9979 93° East 590 679 45,000  Level FlightAware Transoceanic
11:58AM 49.0300 -20.7483 93° East 590 679 45,000  Level FlightAware Transoceanic
11:59AM 49.0205 -20.4988 93° East 590 679 45,000  Level FlightAware Transoceanic
12:00PM 49.0105 -20.2493 94° East 590 679 45,000  Level FlightAware Transoceanic
12:01PM 49.0008 -20.0182 94° East  Level FlightAware Approximate
12:02PM 48.9906 -19.7872 94° East  Level FlightAware Approximate
12:03PM 49.0079 -19.8053 86° East  Level FlightAware Approximate
12:04PM 49.0170 -19.5741 87° East  Level FlightAware Approximate
12:05PM 49.0255 -19.3428 87° East  Level FlightAware Approximate
12:06PM 49.0336 -19.1114 87° East  Level FlightAware Approximate
12:07PM 49.0412 -18.8799 87° East  Level FlightAware Approximate
12:08PM 49.0484 -18.6484 87° East  Level FlightAware Approximate
12:09PM 49.0551 -18.4168 87° East  Level FlightAware Approximate
12:10PM 49.0613 -18.1852 88° East  Level FlightAware Approximate
12:11PM 49.0671 -17.9535 88° East  Level FlightAware Approximate
12:12PM 49.0724 -17.7217 88° East  Level FlightAware Approximate
12:13PM 49.0773 -17.4899 88° East  Level FlightAware Approximate
12:14PM 49.0816 -17.2581 88° East  Level FlightAware Approximate
12:15PM 49.0855 -17.0262 88° East  Level FlightAware Approximate
12:16PM 49.0890 -16.7942 89° East  Level FlightAware Approximate
12:17PM 49.0920 -16.5623 89° East  Level FlightAware Approximate
12:18PM 49.0945 -16.3303 89° East  Level FlightAware Approximate
12:19PM 49.0966 -16.0983 89° East  Level FlightAware Approximate
12:20PM 49.0982 -15.8663 89° East  Level FlightAware Approximate
12:21PM 49.0993 -15.6343 89° East  Level FlightAware Approximate
12:22PM 49.0999 -15.4022 90° East  Level FlightAware Approximate
12:23PM 49.1002 -15.1702 90° East  Level FlightAware Approximate
12:24PM 49.1002 -14.9382 90° East  Level FlightAware Approximate
12:25PM 49.1008 -14.7061 90° East  Level FlightAware Approximate
12:26PM 49.1009 -14.4741 90° East  Level FlightAware Approximate
12:27PM 49.1005 -14.2420 90° East  Level FlightAware Approximate
12:28PM 49.0996 -14.0100 90° East  Level FlightAware Approximate
12:29PM 49.0983 -13.7780 90° East  Level FlightAware Approximate
12:30PM 49.0965 -13.5460 91° East  Level FlightAware Approximate
12:31PM 49.0943 -13.3140 91° East  Level FlightAware Approximate
12:32PM 49.0916 -13.0820 91° East  Level FlightAware Approximate
12:33PM 49.0884 -12.8501 91° East  Level FlightAware Approximate
12:34PM 49.0848 -12.6181 91° East  Level FlightAware Approximate
12:35PM 49.0807 -12.3863 91° East  Level FlightAware Approximate
12:36PM 49.0761 -12.1545 92° East  Level FlightAware Approximate
12:37PM 49.0711 -11.9227 92° East  Level FlightAware Approximate
12:38PM 49.0722 -11.6917 78° East  Level FlightAware Approximate
12:39PM 49.1022 -11.4643 79° East  Level FlightAware Approximate
12:40PM 49.1317 -11.2366 79° East  Level FlightAware Approximate
12:41PM 49.1608 -11.0086 79° East  Level FlightAware Approximate
12:42PM 49.1895 -10.7804 79° East  Level FlightAware Approximate
12:43PM 49.2177 -10.5519 79° East  Level FlightAware Approximate
12:44PM 49.2454 -10.3232 79° East  Level FlightAware Approximate
12:45PM 49.2727 -10.0942 80° East  Level FlightAware Approximate
12:46PM 49.2995 -9.8649 80° East  Level FlightAware Approximate
12:47PM 49.3259 -9.6354 80° East  Level FlightAware Approximate
12:47PM 49.2508 -8.9918 80° East 488 562 45,000  Level FlightAware UK
12:48PM 49.3518 -9.4057 80° East  Level FlightAware Approximate
12:48PM 49.2556 -8.8784 86° East 488 562 45,000  Level FlightAware UK
12:48PM 49.2585 -8.7629 88° East 490 564 45,000  Level FlightAware UK
12:49PM 49.2623 -8.6477 87° East 494 568 45,000  Level FlightAware UK
12:49PM 49.2650 -8.5317 88° East 494 568 45,000  Level FlightAware UK
12:50PM 49.2668 -8.4158 89° East 490 564 45,000  Level FlightAware UK
12:50PM 49.2679 -8.3001 89° East 492 566 45,000  Level FlightAware UK
12:51PM 49.2693 -8.1856 89° East 488 562 45,000  Level FlightAware UK
12:51PM 49.2712 -8.0723 88° East 484 557 45,000  Level FlightAware UK
12:52PM 49.2729 -7.9582 89° East 490 564 45,000  Level FlightAware UK
12:52PM 49.2742 -7.8446 89° East 490 564 45,000  Level FlightAware UK
12:53PM 49.2754 -7.7306 89° East 490 564 45,000  Level FlightAware UK
12:53PM 49.2772 -7.6172 89° East 486 559 45,000  Level FlightAware UK
12:54PM 49.2803 -7.5043 88° East 488 562 45,000  Level FlightAware UK
12:54PM 49.2858 -7.3906 86° East 492 566 45,000  Level FlightAware UK
12:55PM 49.2925 -7.2767 85° East 492 566 45,000  Level FlightAware UK
12:55PM 49.2980 -7.1628 86° East 492 566 45,000  Level FlightAware UK
12:56PM 49.3031 -7.0494 86° East 494 568 45,000  Level FlightAware UK
12:56PM 49.3068 -6.9352 87° East 486 559 45,000  Level FlightAware UK
12:57PM 49.3097 -6.8206 88° East 490 564 45,000  Level FlightAware UK
12:57PM 49.3155 -6.7104 85° East 488 562 45,000  Level FlightAware UK
12:58PM 49.3185 -6.5975 88° East 486 559 45,000  Level FlightAware UK
12:58PM 49.3219 -6.4848 87° East 486 559 45,000  Level FlightAware UK
12:59PM 49.3262 -6.3723 87° East 492 566 45,000  Level FlightAware UK
12:59PM 49.3300 -6.2594 87° East 490 564 45,000  Level FlightAware UK
01:00PM 49.3337 -6.1462 87° East 490 564 45,000  Level FlightAware UK
01:00PM 49.3370 -6.0331 87° East 486 559 45,000  Level FlightAware UK
01:01PM 49.3404 -5.9201 87° East 490 564 45,000  Level FlightAware UK
01:01PM 49.3433 -5.8062 88° East 488 562 45,000  Level FlightAware UK
01:02PM 49.3464 -5.6931 88° East 490 564 45,000  Level FlightAware UK
01:02PM 49.3493 -5.5803 88° East 490 564 45,000  Level FlightAware UK
01:03PM 49.3524 -5.4678 87° East 490 564 45,000 -240 Level FlightAware UK
01:03PM 49.3550 -5.3554 88° East 490 564 44,800 -720 Descending FlightAware UK
01:04PM 49.3574 -5.2435 88° East 490 564 44,300 -1,020 Descending FlightAware UK
01:04PM 49.3598 -5.1318 88° East 490 564 43,800 -900 Descending FlightAware UK
01:05PM 49.3624 -5.0198 88° East 488 562 43,400 -900 Descending FlightAware UK
01:05PM 49.3651 -4.9066 88° East 488 562 42,900 -420 Descending FlightAware UK
01:06PM 49.3673 -4.7910 88° East 490 564 43,000 60 Climbing FlightAware UK
01:06PM 49.3691 -4.6728 89° East 498 573 43,000  Level FlightAware UK
01:07PM 49.3712 -4.5569 88° East 496 571 43,000  Level FlightAware UK
01:07PM 49.3733 -4.4417 88° East 494 568 43,000  Level FlightAware UK
01:08PM 49.3749 -4.3280 89° East 488 562 43,000  Level FlightAware UK
01:08PM 49.3765 -4.2153 89° East 492 566 43,000  Level FlightAware UK
01:09PM 49.3788 -4.1030 88° East 488 562 43,000 -300 Level FlightAware UK
01:10PM 49.3808 -3.9682 89° East 484 557 42,700 -780 Descending FlightAware UK
01:10PM 49.3823 -3.8544 89° East 492 566 42,200 -1,020 Descending FlightAware UK
01:11PM 49.3833 -3.7410 89° East 492 566 41,700 -1,020 Descending FlightAware UK
01:11PM 49.3842 -3.6269 89° East 488 562 41,200 -1,020 Descending FlightAware UK
01:12PM 49.3853 -3.4903 89° East 492 566 40,600 -1,020 Descending FlightAware UK
01:12PM 49.3863 -3.3755 89° East 500 575 40,100 -600 Descending FlightAware UK
01:13PM 49.3871 -3.2394 89° East 492 566 40,000 -120 Descending FlightAware UK
01:13PM 49.3875 -3.1273 90° East 490 564 40,000  Level FlightAware UK
01:14PM 49.3879 -3.0158 90° East 490 564 40,000  Level FlightAware UK
01:14PM 49.3884 -2.9033 90° East 492 566 40,000  Level FlightAware UK
01:15PM 49.3886 -2.7882 90° East 498 573 40,000  Level FlightAware UK
01:15PM 49.3883 -2.6501 90° East 506 582 40,000  Level FlightAware UK
01:16PM 49.3884 -2.5358 90° East 496 571 40,000  Level FlightAware UK
01:16PM 49.3884 -2.4217 90° East 496 571 40,000 -240 Level FlightAware UK
01:17PM 49.3884 -2.2865 90° East 494 568 39,800 -660 Descending FlightAware UK
01:17PM 49.3875 -2.1740 91° East 492 566 39,300 -1,020 Descending FlightAware UK
01:18PM 49.3874 -2.0627 90° East 492 566 38,800 -1,140 Descending FlightAware UK
01:18PM 49.3867 -1.9496 90° East 492 566 38,200 -1,440 Descending FlightAware UK
01:19PM 49.3861 -1.8348 90° East 494 568 37,400 -1,680 Descending FlightAware UK
01:20PM 49.3852 -1.6994 91° East 494 568 36,400 -1,560 Descending FlightAware UK
01:20PM 49.3842 -1.5866 91° East 496 571 35,700 -1,380 Descending FlightAware UK
01:21PM 49.3827 -1.4532 91° East 496 571 34,900 -1,320 Descending FlightAware UK
01:21PM 49.3813 -1.2784 91° East 494 568 33,900 -1,260 Descending FlightAware UK
01:22PM 49.3795 -1.1448 91° East 496 571 33,200 -1,260 Descending FlightAware UK
01:23PM 49.3778 -1.0141 91° East 496 571 32,400 -1,320 Descending FlightAware UK
01:23PM 49.3762 -0.9042 91° East 498 573 31,800 -1,320 Descending FlightAware UK
01:24PM 49.3745 -0.7726 91° East 502 578 31,000 -1,320 Descending FlightAware UK
01:24PM 49.3718 -0.6184 91° East 500 575 30,100 -1,260 Descending FlightAware UK
01:25PM 49.3699 -0.5095 92° East 496 571 29,500 -1,200 Descending FlightAware UK
01:26PM 49.3675 -0.3825 92° East 488 562 28,800 -1,260 Descending FlightAware UK
01:26PM 49.3642 -0.2536 92° East 486 559 28,000 -540 Descending FlightAware UK
01:27PM 49.3479 -0.0663 98° East 480 552 28,000  Level FlightAware UK
01:28PM 49.3411 0.0806 94° East 484 557 28,000  Level FlightAware UK
01:28PM 49.3391 0.1861 92° East 482 555 28,000  Level FlightAware UK
01:29PM 49.3347 0.3755 92° East 484 557 28,000 -360 Level FlightAware UK
01:30PM 49.3318 0.4817 92° East 476 548 27,500 -2,760 Descending FlightAware UK
01:30PM 49.3325 0.6050 89° East 456 525 25,000 -4,140 Descending FlightAware UK
01:31PM 49.3351 0.7310 88° East 456 525 22,600 -3,780 Descending FlightAware UK
01:31PM 49.3367 0.8325 89° East 450 518 20,900 -3,240 Descending FlightAware UK
01:32PM 49.3382 0.9307 89° East 430 495 19,400 -3,000 Descending FlightAware UK
01:32PM 49.3393 1.0258 89° East 420 483 17,900 -3,000 Descending FlightAware UK
01:33PM 49.3409 1.1183 88° East 408 470 16,400 -3,000 Descending FlightAware UK
01:34PM 49.3437 1.2275 88° East 394 453 14,600 -2,760 Descending FlightAware UK
01:34PM 49.3460 1.3300 88° East 362 417 13,100 -1,800 Descending FlightAware UK
01:35PM 49.3487 1.4102 87° East 330 380 12,600 -1,020 Descending FlightAware UK
01:35PM 49.3507 1.4832 88° East 310 357 12,100 -600 Descending FlightAware UK
01:36PM 49.3513 1.5523 89° East 300 345 12,000 -120 Descending FlightAware UK
01:36PM 49.3431 1.6200 101° East 298 343 12,000  Level FlightAware UK
01:37PM 49.3365 1.6877 99° East 300 345 12,000  Level FlightAware UK
01:37PM 49.3274 1.7828 98° East 300 345 12,000  Level FlightAware UK
01:38PM 49.3207 1.8514 98° East 300 345 12,000  Level FlightAware UK
01:39PM 49.3097 1.9597 99° East 300 345 12,000  Level FlightAware UK
01:39PM 49.3005 2.0566 98° East 300 345 12,000  Level FlightAware UK
01:40PM 49.2936 2.1270 98° East 300 345 12,000  Level FlightAware UK
01:40PM 49.2855 2.2107 98° East 300 345 12,000  Level FlightAware UK
01:41PM 49.2789 2.2805 98° East 300 345 12,000  Level FlightAware UK
01:42PM 49.2710 2.3640 98° East 300 345 12,000 -780 Level FlightAware UK
01:42PM 49.2638 2.4343 99° East 300 345 11,200 -1,620 Descending FlightAware UK
01:44PM 49.0385 2.4397 179° South  Level Estimated
01:51PM 48.9694 2.4414 179° South  Level Estimated
01:52PM 48.9694 2.4414 351° North  Level Estimated
01:53PM 48.9694 2.4414 351° North  Level Estimated
01:54PM 48.9694 2.4414 351° North  Level Estimated
01:55PM 48.9694 2.4414 351° North  Level Estimated
01:56PM 48.9694 2.4414 351° North  Level Estimated
01:57PM 48.9694 2.4414 351° North  Level Estimated
01:58PM 48.9694 2.4414 351° North  Level Estimated
01:59PM 48.9694 2.4414 351° North  Level Estimated
02:00PM 48.9694 2.4414 351° North  Level Estimated
02:01PM 48.9694 2.4414 351° North  Level Estimated
02:02PM 48.9694 2.4414 351° North  Level Estimated
02:03PM 48.9694 2.4414 351° North  Level Estimated
02:04PM 48.9694 2.4414 351° North  Level Estimated